Bucks Harbor, Maine
Current Conditions -  °F | °C
As of 10:35 AM on Friday 28 Nov 2014 (Local Time) from KBHB Reporting Station
Overcast Overcast  
Wind Chill: 13°   Ceiling: 9000
Heat Index: 23°   Visibility: 10mi
Dew Point: 19°   Wind: 9mph
Humidity: 86%   Direction: 20°NNE
Pressure: 30.02"   Gusts: NA
Location:  44.6541°N, 67.405°W
Report Text: KBHB 281535Z AUTO 02008KT 10SM BKN090 OVC110 M05/M07 A3002 RMK AO1
Loading
Personal Weather Stations






























Interactive Weather Map New forecast layout! Learn more

10-Day Weather Forecast

Advertisements
Track Severe Weather on mobile